TAF KMOD
KMOD 280520Z 2806/2906 00000KT 3SM HZ FEW250 FM280900 00000KT 1 1/2SM BR FEW250 TEMPO 2813/2817 1/4SM FG FM281800 VRB03KT 4SM HZ FEW250 FM282000 32004KT 5SM HZ SKC=
METAR KMOD
WC KMOD
WS KMOD
WV KMOD